sensor_id;sensor_type;location;lat;lon;timestamp;temperature;humidity
85808;DHT22;76250;48.718;9.000;2024-02-26T00:00:25;9.20;54.50
85808;DHT22;76250;48.718;9.000;2024-02-26T00:02:53;9.20;54.30
85808;DHT22;76250;48.718;9.000;2024-02-26T00:05:22;9.20;54.90
85808;DHT22;76250;48.718;9.000;2024-02-26T00:07:49;9.20;54.40
85808;DHT22;76250;48.718;9.000;2024-02-26T00:10:18;9.20;54.40
85808;DHT22;76250;48.718;9.000;2024-02-26T00:12:50;9.20;54.50
85808;DHT22;76250;48.718;9.000;2024-02-26T00:15:18;9.20;54.40
85808;DHT22;76250;48.718;9.000;2024-02-26T00:17:46;9.20;54.70
85808;DHT22;76250;48.718;9.000;2024-02-26T00:20:14;9.20;54.70
85808;DHT22;76250;48.718;9.000;2024-02-26T00:22:42;9.20;54.60
85808;DHT22;76250;48.718;9.000;2024-02-26T00:25:10;9.20;54.60
85808;DHT22;76250;48.718;9.000;2024-02-26T00:27:40;9.20;54.80
85808;DHT22;76250;48.718;9.000;2024-02-26T00:30:09;9.20;54.90
85808;DHT22;76250;48.718;9.000;2024-02-26T00:32:37;9.20;54.80
85808;DHT22;76250;48.718;9.000;2024-02-26T00:35:06;9.20;54.80
85808;DHT22;76250;48.718;9.000;2024-02-26T00:37:34;9.20;54.90
85808;DHT22;76250;48.718;9.000;2024-02-26T00:40:03;9.20;55.00
85808;DHT22;76250;48.718;9.000;2024-02-26T00:42:31;9.20;55.10
85808;DHT22;76250;48.718;9.000;2024-02-26T00:44:59;9.20;55.10
85808;DHT22;76250;48.718;9.000;2024-02-26T00:47:27;9.20;55.30
85808;DHT22;76250;48.718;9.000;2024-02-26T00:49:55;9.20;55.30
85808;DHT22;76250;48.718;9.000;2024-02-26T00:52:23;9.20;55.00
85808;DHT22;76250;48.718;9.000;2024-02-26T00:54:51;9.20;55.20
85808;DHT22;76250;48.718;9.000;2024-02-26T00:57:19;9.20;55.20
85808;DHT22;76250;48.718;9.000;2024-02-26T00:59:48;9.20;55.00
85808;DHT22;76250;48.718;9.000;2024-02-26T01:02:16;9.20;55.20
85808;DHT22;76250;48.718;9.000;2024-02-26T01:04:44;9.20;54.70
85808;DHT22;76250;48.718;9.000;2024-02-26T01:07:12;9.20;54.80
85808;DHT22;76250;48.718;9.000;2024-02-26T01:09:40;9.20;54.90
85808;DHT22;76250;48.718;9.000;2024-02-26T01:12:08;9.20;54.70
85808;DHT22;76250;48.718;9.000;2024-02-26T01:14:36;9.20;54.80
85808;DHT22;76250;48.718;9.000;2024-02-26T01:17:04;9.20;54.70
85808;DHT22;76250;48.718;9.000;2024-02-26T01:19:32;9.20;54.70
85808;DHT22;76250;48.718;9.000;2024-02-26T01:22:00;9.20;54.60
85808;DHT22;76250;48.718;9.000;2024-02-26T01:24:29;9.30;54.80
85808;DHT22;76250;48.718;9.000;2024-02-26T01:26:57;9.30;54.40
85808;DHT22;76250;48.718;9.000;2024-02-26T01:29:25;9.30;54.80
85808;DHT22;76250;48.718;9.000;2024-02-26T01:31:53;9.30;54.40
85808;DHT22;76250;48.718;9.000;2024-02-26T01:34:22;9.30;54.40
85808;DHT22;76250;48.718;9.000;2024-02-26T01:36:50;9.30;54.40
85808;DHT22;76250;48.718;9.000;2024-02-26T01:39:18;9.30;54.50
85808;DHT22;76250;48.718;9.000;2024-02-26T01:41:46;9.30;54.60
85808;DHT22;76250;48.718;9.000;2024-02-26T01:44:14;9.30;54.60
85808;DHT22;76250;48.718;9.000;2024-02-26T01:46:42;9.30;54.70
85808;DHT22;76250;48.718;9.000;2024-02-26T01:49:12;9.30;54.40
85808;DHT22;76250;48.718;9.000;2024-02-26T01:51:42;9.30;54.30
85808;DHT22;76250;48.718;9.000;2024-02-26T01:54:11;9.30;54.10
85808;DHT22;76250;48.718;9.000;2024-02-26T01:56:40;9.30;54.00
85808;DHT22;76250;48.718;9.000;2024-02-26T01:59:09;9.30;53.90
85808;DHT22;76250;48.718;9.000;2024-02-26T02:01:38;9.30;54.10
85808;DHT22;76250;48.718;9.000;2024-02-26T02:04:09;9.30;54.30
85808;DHT22;76250;48.718;9.000;2024-02-26T02:06:38;9.30;54.20
85808;DHT22;76250;48.718;9.000;2024-02-26T02:09:06;9.30;54.20
85808;DHT22;76250;48.718;9.000;2024-02-26T02:11:35;9.30;54.30
85808;DHT22;76250;48.718;9.000;2024-02-26T02:14:03;9.30;54.60
85808;DHT22;76250;48.718;9.000;2024-02-26T02:16:31;9.30;55.10
85808;DHT22;76250;48.718;9.000;2024-02-26T02:18:59;9.30;55.40
85808;DHT22;76250;48.718;9.000;2024-02-26T02:21:27;9.30;55.40
85808;DHT22;76250;48.718;9.000;2024-02-26T02:23:55;9.30;55.90
85808;DHT22;76250;48.718;9.000;2024-02-26T02:26:23;9.30;56.20
85808;DHT22;76250;48.718;9.000;2024-02-26T02:28:51;9.40;56.00
85808;DHT22;76250;48.718;9.000;2024-02-26T02:31:19;9.30;56.20
85808;DHT22;76250;48.718;9.000;2024-02-26T02:33:47;9.40;55.80
85808;DHT22;76250;48.718;9.000;2024-02-26T02:36:16;9.50;56.10
85808;DHT22;76250;48.718;9.000;2024-02-26T02:38:50;9.50;56.10
85808;DHT22;76250;48.718;9.000;2024-02-26T02:41:19;9.60;56.10
85808;DHT22;76250;48.718;9.000;2024-02-26T02:43:47;9.60;56.00
85808;DHT22;76250;48.718;9.000;2024-02-26T02:46:15;9.70;56.00
85808;DHT22;76250;48.718;9.000;2024-02-26T02:48:43;9.70;55.70
85808;DHT22;76250;48.718;9.000;2024-02-26T02:51:12;9.70;55.80
85808;DHT22;76250;48.718;9.000;2024-02-26T02:53:40;9.80;56.00
85808;DHT22;76250;48.718;9.000;2024-02-26T02:56:08;9.80;55.40
85808;DHT22;76250;48.718;9.000;2024-02-26T02:58:36;9.80;55.50
85808;DHT22;76250;48.718;9.000;2024-02-26T03:01:04;9.90;55.50
85808;DHT22;76250;48.718;9.000;2024-02-26T03:03:32;9.90;55.40
85808;DHT22;76250;48.718;9.000;2024-02-26T03:06:00;9.90;55.40
85808;DHT22;76250;48.718;9.000;2024-02-26T03:08:29;10.00;55.90
85808;DHT22;76250;48.718;9.000;2024-02-26T03:10:58;10.00;55.20
85808;DHT22;76250;48.718;9.000;2024-02-26T03:13:27;10.00;55.20
85808;DHT22;76250;48.718;9.000;2024-02-26T03:15:55;10.10;55.00
85808;DHT22;76250;48.718;9.000;2024-02-26T03:18:23;10.10;55.20
85808;DHT22;76250;48.718;9.000;2024-02-26T03:20:51;10.10;55.10
85808;DHT22;76250;48.718;9.000;2024-02-26T03:23:19;10.10;55.00
85808;DHT22;76250;48.718;9.000;2024-02-26T03:25:48;10.10;55.30
85808;DHT22;76250;48.718;9.000;2024-02-26T03:28:16;10.20;55.60
85808;DHT22;76250;48.718;9.000;2024-02-26T03:30:44;10.20;55.50
85808;DHT22;76250;48.718;9.000;2024-02-26T03:33:12;10.20;55.70
85808;DHT22;76250;48.718;9.000;2024-02-26T03:35:40;10.20;55.40
85808;DHT22;76250;48.718;9.000;2024-02-26T03:38:08;10.20;55.50
85808;DHT22;76250;48.718;9.000;2024-02-26T03:40:36;10.20;56.20
85808;DHT22;76250;48.718;9.000;2024-02-26T03:43:04;10.20;56.00
85808;DHT22;76250;48.718;9.000;2024-02-26T03:45:34;10.10;56.30
85808;DHT22;76250;48.718;9.000;2024-02-26T03:48:05;10.10;56.20
85808;DHT22;76250;48.718;9.000;2024-02-26T03:50:33;10.10;56.90
85808;DHT22;76250;48.718;9.000;2024-02-26T03:53:02;10.10;56.40
85808;DHT22;76250;48.718;9.000;2024-02-26T03:55:30;10.10;56.70
85808;DHT22;76250;48.718;9.000;2024-02-26T03:57:58;10.10;56.90
85808;DHT22;76250;48.718;9.000;2024-02-26T04:00:26;10.00;57.10
85808;DHT22;76250;48.718;9.000;2024-02-26T04:02:56;10.00;56.80
85808;DHT22;76250;48.718;9.000;2024-02-26T04:05:24;10.00;56.60
85808;DHT22;76250;48.718;9.000;2024-02-26T04:07:52;10.00;56.70
85808;DHT22;76250;48.718;9.000;2024-02-26T04:10:20;10.00;56.80
85808;DHT22;76250;48.718;9.000;2024-02-26T04:12:48;10.00;56.80
85808;DHT22;76250;48.718;9.000;2024-02-26T04:15:16;9.90;56.70
85808;DHT22;76250;48.718;9.000;2024-02-26T04:17:44;9.90;56.70
85808;DHT22;76250;48.718;9.000;2024-02-26T04:20:14;9.90;57.10
85808;DHT22;76250;48.718;9.000;2024-02-26T04:22:43;9.90;57.20
85808;DHT22;76250;48.718;9.000;2024-02-26T04:25:12;9.80;57.20
85808;DHT22;76250;48.718;9.000;2024-02-26T04:27:40;9.80;57.20
85808;DHT22;76250;48.718;9.000;2024-02-26T04:30:08;9.80;57.50
85808;DHT22;76250;48.718;9.000;2024-02-26T04:32:37;9.80;57.00
85808;DHT22;76250;48.718;9.000;2024-02-26T04:35:05;9.80;57.30
85808;DHT22;76250;48.718;9.000;2024-02-26T04:37:33;9.80;57.30
85808;DHT22;76250;48.718;9.000;2024-02-26T04:40:01;9.80;57.50
85808;DHT22;76250;48.718;9.000;2024-02-26T04:42:29;9.70;57.30
85808;DHT22;76250;48.718;9.000;2024-02-26T04:44:57;9.70;57.40
85808;DHT22;76250;48.718;9.000;2024-02-26T04:47:25;9.70;57.20
85808;DHT22;76250;48.718;9.000;2024-02-26T04:49:53;9.70;56.90
85808;DHT22;76250;48.718;9.000;2024-02-26T04:52:21;9.70;56.90
85808;DHT22;76250;48.718;9.000;2024-02-26T04:54:49;9.70;56.60
85808;DHT22;76250;48.718;9.000;2024-02-26T04:57:17;9.70;56.60
85808;DHT22;76250;48.718;9.000;2024-02-26T04:59:46;9.70;56.60
85808;DHT22;76250;48.718;9.000;2024-02-26T05:02:15;9.70;56.60
85808;DHT22;76250;48.718;9.000;2024-02-26T05:04:43;9.70;56.50
85808;DHT22;76250;48.718;9.000;2024-02-26T05:07:11;9.70;56.50
85808;DHT22;76250;48.718;9.000;2024-02-26T05:09:41;9.70;56.50
85808;DHT22;76250;48.718;9.000;2024-02-26T05:12:11;9.80;56.40
85808;DHT22;76250;48.718;9.000;2024-02-26T05:14:39;9.80;56.40
85808;DHT22;76250;48.718;9.000;2024-02-26T05:17:08;9.80;56.30
85808;DHT22;76250;48.718;9.000;2024-02-26T05:19:36;9.80;56.60
85808;DHT22;76250;48.718;9.000;2024-02-26T05:22:05;9.80;56.70
85808;DHT22;76250;48.718;9.000;2024-02-26T05:24:33;9.80;56.70
85808;DHT22;76250;48.718;9.000;2024-02-26T05:27:01;9.80;56.60
85808;DHT22;76250;48.718;9.000;2024-02-26T05:29:29;9.80;56.70
85808;DHT22;76250;48.718;9.000;2024-02-26T05:31:57;9.80;56.70
85808;DHT22;76250;48.718;9.000;2024-02-26T05:34:25;9.80;56.90
85808;DHT22;76250;48.718;9.000;2024-02-26T05:36:53;9.70;57.00
85808;DHT22;76250;48.718;9.000;2024-02-26T05:39:21;9.70;56.90
85808;DHT22;76250;48.718;9.000;2024-02-26T05:41:49;9.70;57.20
85808;DHT22;76250;48.718;9.000;2024-02-26T05:44:17;9.70;57.10
85808;DHT22;76250;48.718;9.000;2024-02-26T05:46:45;9.70;56.80
85808;DHT22;76250;48.718;9.000;2024-02-26T05:49:13;9.70;57.10
85808;DHT22;76250;48.718;9.000;2024-02-26T05:51:41;9.70;57.60
85808;DHT22;76250;48.718;9.000;2024-02-26T05:54:09;9.70;57.80
85808;DHT22;76250;48.718;9.000;2024-02-26T05:56:38;9.70;58.10
85808;DHT22;76250;48.718;9.000;2024-02-26T05:59:06;9.60;58.10
85808;DHT22;76250;48.718;9.000;2024-02-26T06:01:34;9.60;58.10
85808;DHT22;76250;48.718;9.000;2024-02-26T06:04:02;9.60;58.40
85808;DHT22;76250;48.718;9.000;2024-02-26T06:06:30;9.50;58.30
85808;DHT22;76250;48.718;9.000;2024-02-26T06:09:04;9.50;58.30
85808;DHT22;76250;48.718;9.000;2024-02-26T06:11:32;9.50;58.60
85808;DHT22;76250;48.718;9.000;2024-02-26T06:14:00;9.40;58.80
85808;DHT22;76250;48.718;9.000;2024-02-26T06:16:31;9.30;58.90
85808;DHT22;76250;48.718;9.000;2024-02-26T06:18:59;9.30;59.20
85808;DHT22;76250;48.718;9.000;2024-02-26T06:21:28;9.30;59.20
85808;DHT22;76250;48.718;9.000;2024-02-26T06:23:56;9.20;59.10
85808;DHT22;76250;48.718;9.000;2024-02-26T06:26:24;9.20;59.30
85808;DHT22;76250;48.718;9.000;2024-02-26T06:28:56;9.20;59.30
85808;DHT22;76250;48.718;9.000;2024-02-26T06:31:24;9.10;59.40
85808;DHT22;76250;48.718;9.000;2024-02-26T06:33:55;9.10;59.30
85808;DHT22;76250;48.718;9.000;2024-02-26T06:36:24;9.00;59.10
85808;DHT22;76250;48.718;9.000;2024-02-26T06:38:53;9.00;59.30
85808;DHT22;76250;48.718;9.000;2024-02-26T06:41:22;9.00;59.50
85808;DHT22;76250;48.718;9.000;2024-02-26T06:43:55;9.00;59.80
85808;DHT22;76250;48.718;9.000;2024-02-26T06:46:23;8.90;59.80
85808;DHT22;76250;48.718;9.000;2024-02-26T06:48:51;8.90;59.90
85808;DHT22;76250;48.718;9.000;2024-02-26T06:51:22;8.90;60.30
85808;DHT22;76250;48.718;9.000;2024-02-26T06:53:51;8.90;60.20
85808;DHT22;76250;48.718;9.000;2024-02-26T06:56:19;8.90;60.40
85808;DHT22;76250;48.718;9.000;2024-02-26T06:58:47;8.90;60.60
85808;DHT22;76250;48.718;9.000;2024-02-26T07:01:15;8.90;60.80
85808;DHT22;76250;48.718;9.000;2024-02-26T07:03:43;8.90;60.90
85808;DHT22;76250;48.718;9.000;2024-02-26T07:06:11;8.90;60.80
85808;DHT22;76250;48.718;9.000;2024-02-26T07:08:41;9.00;61.20
85808;DHT22;76250;48.718;9.000;2024-02-26T07:11:09;9.00;60.80
85808;DHT22;76250;48.718;9.000;2024-02-26T07:13:38;9.00;60.90
85808;DHT22;76250;48.718;9.000;2024-02-26T07:16:06;9.00;60.90
85808;DHT22;76250;48.718;9.000;2024-02-26T07:18:37;9.00;60.80
85808;DHT22;76250;48.718;9.000;2024-02-26T07:21:06;9.10;60.90
85808;DHT22;76250;48.718;9.000;2024-02-26T07:23:34;9.10;60.90
85808;DHT22;76250;48.718;9.000;2024-02-26T07:26:02;9.20;60.60
85808;DHT22;76250;48.718;9.000;2024-02-26T07:28:31;9.30;60.40
85808;DHT22;76250;48.718;9.000;2024-02-26T07:30:59;9.30;60.60
85808;DHT22;76250;48.718;9.000;2024-02-26T07:33:26;9.30;60.50
85808;DHT22;76250;48.718;9.000;2024-02-26T07:35:55;9.30;60.80
85808;DHT22;76250;48.718;9.000;2024-02-26T07:38:23;9.30;60.90
85808;DHT22;76250;48.718;9.000;2024-02-26T07:41:08;9.40;60.80
85808;DHT22;76250;48.718;9.000;2024-02-26T07:43:36;9.50;60.80
85808;DHT22;76250;48.718;9.000;2024-02-26T07:46:04;9.50;60.70
85808;DHT22;76250;48.718;9.000;2024-02-26T07:48:32;9.50;60.90
85808;DHT22;76250;48.718;9.000;2024-02-26T07:51:01;9.50;60.80
85808;DHT22;76250;48.718;9.000;2024-02-26T07:53:31;9.60;61.00
85808;DHT22;76250;48.718;9.000;2024-02-26T07:55:59;9.60;61.20
85808;DHT22;76250;48.718;9.000;2024-02-26T07:58:27;9.70;60.70
85808;DHT22;76250;48.718;9.000;2024-02-26T08:00:55;9.70;60.80
85808;DHT22;76250;48.718;9.000;2024-02-26T08:03:23;9.70;60.90
85808;DHT22;76250;48.718;9.000;2024-02-26T08:05:51;9.80;60.80
85808;DHT22;76250;48.718;9.000;2024-02-26T08:08:19;9.80;60.70
85808;DHT22;76250;48.718;9.000;2024-02-26T08:10:47;9.90;60.80
85808;DHT22;76250;48.718;9.000;2024-02-26T08:13:15;9.90;60.30
85808;DHT22;76250;48.718;9.000;2024-02-26T08:15:43;10.00;60.40
85808;DHT22;76250;48.718;9.000;2024-02-26T08:18:11;10.00;60.20
85808;DHT22;76250;48.718;9.000;2024-02-26T08:20:41;10.10;60.50
85808;DHT22;76250;48.718;9.000;2024-02-26T08:23:09;10.10;60.30
85808;DHT22;76250;48.718;9.000;2024-02-26T08:25:37;10.20;60.30
85808;DHT22;76250;48.718;9.000;2024-02-26T08:28:05;10.20;60.30
85808;DHT22;76250;48.718;9.000;2024-02-26T08:30:33;10.30;60.10
85808;DHT22;76250;48.718;9.000;2024-02-26T08:33:02;10.40;60.10
85808;DHT22;76250;48.718;9.000;2024-02-26T08:35:30;10.40;60.10
85808;DHT22;76250;48.718;9.000;2024-02-26T08:37:58;10.50;60.10
85808;DHT22;76250;48.718;9.000;2024-02-26T08:40:26;10.50;60.00
85808;DHT22;76250;48.718;9.000;2024-02-26T08:42:54;10.60;59.90
85808;DHT22;76250;48.718;9.000;2024-02-26T08:45:23;10.70;59.80
85808;DHT22;76250;48.718;9.000;2024-02-26T08:47:54;10.70;60.00
85808;DHT22;76250;48.718;9.000;2024-02-26T08:50:22;10.70;59.80
85808;DHT22;76250;48.718;9.000;2024-02-26T08:52:50;10.80;59.60
85808;DHT22;76250;48.718;9.000;2024-02-26T08:55:20;10.80;59.30
85808;DHT22;76250;48.718;9.000;2024-02-26T08:57:48;10.90;59.10
85808;DHT22;76250;48.718;9.000;2024-02-26T09:00:17;10.90;59.10
85808;DHT22;76250;48.718;9.000;2024-02-26T09:02:48;10.90;59.10
85808;DHT22;76250;48.718;9.000;2024-02-26T09:05:17;10.90;59.10
85808;DHT22;76250;48.718;9.000;2024-02-26T09:07:45;10.90;58.80
85808;DHT22;76250;48.718;9.000;2024-02-26T09:10:14;10.90;58.80
85808;DHT22;76250;48.718;9.000;2024-02-26T09:12:42;10.90;58.90
85808;DHT22;76250;48.718;9.000;2024-02-26T09:15:10;10.90;59.10
85808;DHT22;76250;48.718;9.000;2024-02-26T09:17:39;10.90;58.90
85808;DHT22;76250;48.718;9.000;2024-02-26T09:20:07;11.00;58.90
85808;DHT22;76250;48.718;9.000;2024-02-26T09:22:37;11.00;58.90
85808;DHT22;76250;48.718;9.000;2024-02-26T09:25:05;11.10;58.70
85808;DHT22;76250;48.718;9.000;2024-02-26T09:27:34;11.10;58.80
85808;DHT22;76250;48.718;9.000;2024-02-26T09:30:02;11.20;58.60
85808;DHT22;76250;48.718;9.000;2024-02-26T09:32:30;11.20;58.70
85808;DHT22;76250;48.718;9.000;2024-02-26T09:34:58;11.30;58.30
85808;DHT22;76250;48.718;9.000;2024-02-26T09:37:28;11.40;58.70
85808;DHT22;76250;48.718;9.000;2024-02-26T09:39:56;11.40;58.30
85808;DHT22;76250;48.718;9.000;2024-02-26T09:42:26;11.50;58.30
85808;DHT22;76250;48.718;9.000;2024-02-26T09:44:55;11.60;58.30
85808;DHT22;76250;48.718;9.000;2024-02-26T09:47:25;11.70;58.20
85808;DHT22;76250;48.718;9.000;2024-02-26T09:49:57;11.80;57.70
85808;DHT22;76250;48.718;9.000;2024-02-26T09:52:28;11.80;57.70
85808;DHT22;76250;48.718;9.000;2024-02-26T09:54:59;11.90;57.80
85808;DHT22;76250;48.718;9.000;2024-02-26T09:57:27;12.00;57.80
85808;DHT22;76250;48.718;9.000;2024-02-26T09:59:59;12.10;57.60
85808;DHT22;76250;48.718;9.000;2024-02-26T10:02:36;12.20;57.80
85808;DHT22;76250;48.718;9.000;2024-02-26T10:05:07;12.30;57.70
85808;DHT22;76250;48.718;9.000;2024-02-26T10:07:38;12.50;57.50
85808;DHT22;76250;48.718;9.000;2024-02-26T10:10:06;12.60;57.60
85808;DHT22;76250;48.718;9.000;2024-02-26T10:12:36;12.70;57.30
85808;DHT22;76250;48.718;9.000;2024-02-26T10:15:05;12.80;57.00
85808;DHT22;76250;48.718;9.000;2024-02-26T10:17:33;12.90;57.10
85808;DHT22;76250;48.718;9.000;2024-02-26T10:20:16;13.00;56.90
85808;DHT22;76250;48.718;9.000;2024-02-26T10:22:51;13.10;56.60
85808;DHT22;76250;48.718;9.000;2024-02-26T10:25:20;13.20;56.40
85808;DHT22;76250;48.718;9.000;2024-02-26T10:27:48;13.30;56.70
85808;DHT22;76250;48.718;9.000;2024-02-26T10:30:18;13.40;56.20
85808;DHT22;76250;48.718;9.000;2024-02-26T10:32:50;13.50;56.00
85808;DHT22;76250;48.718;9.000;2024-02-26T10:35:19;13.60;55.60
85808;DHT22;76250;48.718;9.000;2024-02-26T10:37:50;13.70;55.40
85808;DHT22;76250;48.718;9.000;2024-02-26T10:40:18;13.80;54.90
85808;DHT22;76250;48.718;9.000;2024-02-26T10:42:46;13.90;54.70
85808;DHT22;76250;48.718;9.000;2024-02-26T10:45:14;13.90;54.60
85808;DHT22;76250;48.718;9.000;2024-02-26T10:47:42;14.00;54.20
85808;DHT22;76250;48.718;9.000;2024-02-26T10:50:13;14.10;54.00
85808;DHT22;76250;48.718;9.000;2024-02-26T10:52:43;14.10;53.40
85808;DHT22;76250;48.718;9.000;2024-02-26T10:55:16;14.20;53.50
85808;DHT22;76250;48.718;9.000;2024-02-26T10:57:48;14.20;53.00
85808;DHT22;76250;48.718;9.000;2024-02-26T11:00:18;14.20;51.60
85808;DHT22;76250;48.718;9.000;2024-02-26T11:02:47;14.20;52.60
85808;DHT22;76250;48.718;9.000;2024-02-26T11:05:17;14.30;52.30
85808;DHT22;76250;48.718;9.000;2024-02-26T11:07:45;14.30;52.20
85808;DHT22;76250;48.718;9.000;2024-02-26T11:10:15;14.30;52.80
85808;DHT22;76250;48.718;9.000;2024-02-26T11:12:44;14.40;52.60
85808;DHT22;76250;48.718;9.000;2024-02-26T11:15:13;14.50;52.70
85808;DHT22;76250;48.718;9.000;2024-02-26T11:17:43;14.50;52.50
85808;DHT22;76250;48.718;9.000;2024-02-26T11:20:12;14.60;52.30
85808;DHT22;76250;48.718;9.000;2024-02-26T11:22:42;14.60;52.20
85808;DHT22;76250;48.718;9.000;2024-02-26T11:25:09;14.60;51.80
85808;DHT22;76250;48.718;9.000;2024-02-26T11:27:45;14.70;51.30
85808;DHT22;76250;48.718;9.000;2024-02-26T11:30:17;14.60;51.10
85808;DHT22;76250;48.718;9.000;2024-02-26T11:32:48;14.60;51.40
85808;DHT22;76250;48.718;9.000;2024-02-26T11:35:17;14.60;51.30
85808;DHT22;76250;48.718;9.000;2024-02-26T11:37:56;14.50;50.70
85808;DHT22;76250;48.718;9.000;2024-02-26T11:40:26;14.50;49.60
85808;DHT22;76250;48.718;9.000;2024-02-26T11:42:54;14.50;50.90
85808;DHT22;76250;48.718;9.000;2024-02-26T11:48:17;14.60;51.70
85808;DHT22;76250;48.718;9.000;2024-02-26T11:50:49;14.60;50.10
85808;DHT22;76250;48.718;9.000;2024-02-26T11:58:44;14.80;50.30
85808;DHT22;76250;48.718;9.000;2024-02-26T12:09:33;14.80;49.70
85808;DHT22;76250;48.718;9.000;2024-02-26T12:12:05;14.70;50.00
85808;DHT22;76250;48.718;9.000;2024-02-26T12:14:51;14.70;50.20
85808;DHT22;76250;48.718;9.000;2024-02-26T12:17:21;14.70;49.60
85808;DHT22;76250;48.718;9.000;2024-02-26T12:19:51;14.70;49.80
85808;DHT22;76250;48.718;9.000;2024-02-26T12:22:21;14.70;49.80
85808;DHT22;76250;48.718;9.000;2024-02-26T12:24:58;14.70;49.30
85808;DHT22;76250;48.718;9.000;2024-02-26T12:27:28;14.70;49.40
85808;DHT22;76250;48.718;9.000;2024-02-26T12:29:57;14.70;49.60
85808;DHT22;76250;48.718;9.000;2024-02-26T12:32:24;14.70;50.00
85808;DHT22;76250;48.718;9.000;2024-02-26T12:34:53;14.70;49.40
85808;DHT22;76250;48.718;9.000;2024-02-26T12:37:21;14.80;49.80
85808;DHT22;76250;48.718;9.000;2024-02-26T12:39:49;14.80;50.20
85808;DHT22;76250;48.718;9.000;2024-02-26T12:42:17;14.80;49.80
85808;DHT22;76250;48.718;9.000;2024-02-26T12:44:46;14.90;49.70
85808;DHT22;76250;48.718;9.000;2024-02-26T12:47:14;14.90;49.90
85808;DHT22;76250;48.718;9.000;2024-02-26T12:49:47;15.00;49.90
85808;DHT22;76250;48.718;9.000;2024-02-26T12:52:16;15.00;49.50
85808;DHT22;76250;48.718;9.000;2024-02-26T12:54:44;15.10;49.70
85808;DHT22;76250;48.718;9.000;2024-02-26T12:57:12;15.10;50.00
85808;DHT22;76250;48.718;9.000;2024-02-26T12:59:41;15.20;50.00
85808;DHT22;76250;48.718;9.000;2024-02-26T13:02:09;15.20;50.00
85808;DHT22;76250;48.718;9.000;2024-02-26T13:04:38;15.30;50.10
85808;DHT22;76250;48.718;9.000;2024-02-26T13:07:06;15.30;49.50
85808;DHT22;76250;48.718;9.000;2024-02-26T13:09:35;15.40;49.90
85808;DHT22;76250;48.718;9.000;2024-02-26T13:12:04;15.50;49.80
85808;DHT22;76250;48.718;9.000;2024-02-26T13:14:34;15.50;49.40
85808;DHT22;76250;48.718;9.000;2024-02-26T13:17:03;15.50;48.30
85808;DHT22;76250;48.718;9.000;2024-02-26T13:19:31;15.60;49.20
85808;DHT22;76250;48.718;9.000;2024-02-26T13:22:04;15.70;49.20
85808;DHT22;76250;48.718;9.000;2024-02-26T13:24:35;15.70;49.10
85808;DHT22;76250;48.718;9.000;2024-02-26T13:27:03;15.80;49.20
85808;DHT22;76250;48.718;9.000;2024-02-26T13:29:34;15.80;48.80
85808;DHT22;76250;48.718;9.000;2024-02-26T13:32:03;15.80;49.50
85808;DHT22;76250;48.718;9.000;2024-02-26T13:34:32;15.80;48.70
85808;DHT22;76250;48.718;9.000;2024-02-26T13:37:02;15.90;48.60
85808;DHT22;76250;48.718;9.000;2024-02-26T13:39:31;15.90;48.60
85808;DHT22;76250;48.718;9.000;2024-02-26T13:41:59;15.90;48.70
85808;DHT22;76250;48.718;9.000;2024-02-26T13:44:27;15.90;48.70
85808;DHT22;76250;48.718;9.000;2024-02-26T13:46:55;15.90;48.30
85808;DHT22;76250;48.718;9.000;2024-02-26T13:49:23;15.80;48.30
85808;DHT22;76250;48.718;9.000;2024-02-26T13:51:51;15.90;47.60
85808;DHT22;76250;48.718;9.000;2024-02-26T13:54:19;15.80;48.20
85808;DHT22;76250;48.718;9.000;2024-02-26T13:56:48;15.80;48.20
85808;DHT22;76250;48.718;9.000;2024-02-26T13:59:16;15.80;48.30
85808;DHT22;76250;48.718;9.000;2024-02-26T14:01:44;15.80;48.50
85808;DHT22;76250;48.718;9.000;2024-02-26T14:04:12;15.80;48.30
85808;DHT22;76250;48.718;9.000;2024-02-26T14:06:40;15.80;48.50
85808;DHT22;76250;48.718;9.000;2024-02-26T14:09:08;15.80;48.10
85808;DHT22;76250;48.718;9.000;2024-02-26T14:11:37;15.90;48.40
85808;DHT22;76250;48.718;9.000;2024-02-26T14:14:07;15.90;48.10
85808;DHT22;76250;48.718;9.000;2024-02-26T14:16:35;16.00;48.00
85808;DHT22;76250;48.718;9.000;2024-02-26T14:19:03;16.00;48.10
85808;DHT22;76250;48.718;9.000;2024-02-26T14:21:31;16.10;48.20
85808;DHT22;76250;48.718;9.000;2024-02-26T14:23:59;16.10;48.20
85808;DHT22;76250;48.718;9.000;2024-02-26T14:26:27;16.20;48.70
85808;DHT22;76250;48.718;9.000;2024-02-26T14:28:57;16.20;47.80
85808;DHT22;76250;48.718;9.000;2024-02-26T14:31:25;16.30;47.40
85808;DHT22;76250;48.718;9.000;2024-02-26T14:33:53;16.30;47.40
85808;DHT22;76250;48.718;9.000;2024-02-26T14:36:22;16.30;47.40
85808;DHT22;76250;48.718;9.000;2024-02-26T14:38:50;16.30;46.50
85808;DHT22;76250;48.718;9.000;2024-02-26T14:41:19;16.30;46.80
85808;DHT22;76250;48.718;9.000;2024-02-26T14:43:46;16.30;46.90
85808;DHT22;76250;48.718;9.000;2024-02-26T14:46:14;16.30;47.20
85808;DHT22;76250;48.718;9.000;2024-02-26T14:48:42;16.20;47.10
85808;DHT22;76250;48.718;9.000;2024-02-26T14:51:11;16.10;47.00
85808;DHT22;76250;48.718;9.000;2024-02-26T14:53:39;16.10;47.00
85808;DHT22;76250;48.718;9.000;2024-02-26T14:56:07;16.00;47.20
85808;DHT22;76250;48.718;9.000;2024-02-26T14:58:38;15.90;46.90
85808;DHT22;76250;48.718;9.000;2024-02-26T15:01:06;15.90;47.10
85808;DHT22;76250;48.718;9.000;2024-02-26T15:03:35;15.80;47.00
85808;DHT22;76250;48.718;9.000;2024-02-26T15:06:04;15.70;47.80
85808;DHT22;76250;48.718;9.000;2024-02-26T15:08:33;15.60;47.10
85808;DHT22;76250;48.718;9.000;2024-02-26T15:11:01;15.60;47.00
85808;DHT22;76250;48.718;9.000;2024-02-26T15:13:29;15.50;47.30
85808;DHT22;76250;48.718;9.000;2024-02-26T15:15:57;15.50;47.30
85808;DHT22;76250;48.718;9.000;2024-02-26T15:18:25;15.40;47.40
85808;DHT22;76250;48.718;9.000;2024-02-26T15:20:56;15.40;47.50
85808;DHT22;76250;48.718;9.000;2024-02-26T15:23:24;15.40;47.70
85808;DHT22;76250;48.718;9.000;2024-02-26T15:25:52;15.30;47.60
85808;DHT22;76250;48.718;9.000;2024-02-26T15:28:20;15.30;47.90
85808;DHT22;76250;48.718;9.000;2024-02-26T15:30:48;15.30;47.50
85808;DHT22;76250;48.718;9.000;2024-02-26T15:33:19;15.30;47.50
85808;DHT22;76250;48.718;9.000;2024-02-26T15:35:54;15.30;47.30
85808;DHT22;76250;48.718;9.000;2024-02-26T15:38:22;15.30;47.60
85808;DHT22;76250;48.718;9.000;2024-02-26T15:40:50;15.20;47.40
85808;DHT22;76250;48.718;9.000;2024-02-26T15:43:33;15.20;47.20
85808;DHT22;76250;48.718;9.000;2024-02-26T15:46:27;15.20;47.20
85808;DHT22;76250;48.718;9.000;2024-02-26T15:48:56;15.10;47.40
85808;DHT22;76250;48.718;9.000;2024-02-26T15:51:24;15.10;47.70
85808;DHT22;76250;48.718;9.000;2024-02-26T15:53:52;15.00;47.90
85808;DHT22;76250;48.718;9.000;2024-02-26T15:56:22;15.00;47.90
85808;DHT22;76250;48.718;9.000;2024-02-26T15:58:52;15.00;47.80
85808;DHT22;76250;48.718;9.000;2024-02-26T16:01:20;15.00;47.90
85808;DHT22;76250;48.718;9.000;2024-02-26T16:03:53;14.90;47.90